sensor_id;sensor_type;location;lat;lon;timestamp;temperature;humidity
1534;DHT22;760;48.822;9.304;2022-09-28T04:03:45;10.60;99.90
1534;DHT22;760;48.822;9.304;2022-09-28T04:06:11;10.50;99.90
1534;DHT22;760;48.822;9.304;2022-09-28T04:08:37;10.40;99.90
1534;DHT22;760;48.822;9.304;2022-09-28T04:11:03;10.30;99.90
1534;DHT22;760;48.822;9.304;2022-09-28T04:13:29;10.30;99.90
1534;DHT22;760;48.822;9.304;2022-09-28T04:15:56;10.20;99.90
1534;DHT22;760;48.822;9.304;2022-09-28T04:18:23;10.20;99.90
1534;DHT22;760;48.822;9.304;2022-09-28T04:21:03;10.20;99.90
1534;DHT22;760;48.822;9.304;2022-09-28T04:23:34;10.10;99.90
1534;DHT22;760;48.822;9.304;2022-09-28T04:26:01;10.00;99.90
1534;DHT22;760;48.822;9.304;2022-09-28T04:28:27;10.00;99.90
1534;DHT22;760;48.822;9.304;2022-09-28T04:31:16;10.00;99.90
1534;DHT22;760;48.822;9.304;2022-09-28T04:33:42;10.00;99.90
1534;DHT22;760;48.822;9.304;2022-09-28T04:36:08;10.00;99.90
1534;DHT22;760;48.822;9.304;2022-09-28T04:38:35;10.00;99.90
1534;DHT22;760;48.822;9.304;2022-09-28T04:41:01;10.00;99.90
1534;DHT22;760;48.822;9.304;2022-09-28T04:43:27;9.90;99.90
1534;DHT22;760;48.822;9.304;2022-09-28T04:46:03;9.90;99.90
1534;DHT22;760;48.822;9.304;2022-09-28T04:48:32;9.90;99.90
1534;DHT22;760;48.822;9.304;2022-09-28T04:50:59;9.90;99.90
1534;DHT22;760;48.822;9.304;2022-09-28T04:53:26;9.90;99.90
1534;DHT22;760;48.822;9.304;2022-09-28T04:56:11;9.90;99.90
1534;DHT22;760;48.822;9.304;2022-09-28T04:58:37;9.90;99.90
1534;DHT22;760;48.822;9.304;2022-09-28T05:01:06;9.90;99.90
1534;DHT22;760;48.822;9.304;2022-09-28T05:03:32;9.90;99.90
1534;DHT22;760;48.822;9.304;2022-09-28T05:05:59;9.90;99.90
1534;DHT22;760;48.822;9.304;2022-09-28T05:08:24;9.90;99.90
1534;DHT22;760;48.822;9.304;2022-09-28T05:10:58;9.90;99.90
1534;DHT22;760;48.822;9.304;2022-09-28T05:13:24;9.90;99.90
1534;DHT22;760;48.822;9.304;2022-09-28T05:15:53;9.90;99.90
1534;DHT22;760;48.822;9.304;2022-09-28T05:18:19;9.90;99.90
1534;DHT22;760;48.822;9.304;2022-09-28T05:20:44;9.90;99.90
1534;DHT22;760;48.822;9.304;2022-09-28T05:23:11;9.90;99.90
1534;DHT22;760;48.822;9.304;2022-09-28T05:25:40;9.90;99.90
1534;DHT22;760;48.822;9.304;2022-09-28T05:28:07;9.80;99.90
1534;DHT22;760;48.822;9.304;2022-09-28T05:30:34;9.80;99.90
1534;DHT22;760;48.822;9.304;2022-09-28T05:32:59;9.80;99.90
1534;DHT22;760;48.822;9.304;2022-09-28T05:35:25;9.80;99.90
1534;DHT22;760;48.822;9.304;2022-09-28T05:37:51;9.80;99.90
1534;DHT22;760;48.822;9.304;2022-09-28T05:40:17;9.80;99.90
1534;DHT22;760;48.822;9.304;2022-09-28T05:42:43;9.80;99.90
1534;DHT22;760;48.822;9.304;2022-09-28T05:45:09;9.80;99.90
1534;DHT22;760;48.822;9.304;2022-09-28T05:47:39;9.80;99.90
1534;DHT22;760;48.822;9.304;2022-09-28T05:50:06;9.80;99.90
1534;DHT22;760;48.822;9.304;2022-09-28T05:52:34;9.80;99.90
1534;DHT22;760;48.822;9.304;2022-09-28T05:54:59;9.80;99.90
1534;DHT22;760;48.822;9.304;2022-09-28T05:57:26;9.80;99.90
1534;DHT22;760;48.822;9.304;2022-09-28T05:59:52;9.80;99.90
1534;DHT22;760;48.822;9.304;2022-09-28T06:02:17;9.80;99.90
1534;DHT22;760;48.822;9.304;2022-09-28T06:04:43;9.80;99.90
1534;DHT22;760;48.822;9.304;2022-09-28T06:07:08;9.80;99.90
1534;DHT22;760;48.822;9.304;2022-09-28T06:09:34;9.80;99.90
1534;DHT22;760;48.822;9.304;2022-09-28T06:12:00;9.80;99.90
1534;DHT22;760;48.822;9.304;2022-09-28T06:14:25;9.80;99.90
1534;DHT22;760;48.822;9.304;2022-09-28T06:16:51;9.80;99.90
1534;DHT22;760;48.822;9.304;2022-09-28T06:19:17;9.80;99.90
1534;DHT22;760;48.822;9.304;2022-09-28T06:21:43;9.80;99.90
1534;DHT22;760;48.822;9.304;2022-09-28T06:24:08;9.90;99.90
1534;DHT22;760;48.822;9.304;2022-09-28T06:26:34;9.80;99.90
1534;DHT22;760;48.822;9.304;2022-09-28T06:29:00;9.90;99.90
1534;DHT22;760;48.822;9.304;2022-09-28T06:31:26;9.90;99.90
1534;DHT22;760;48.822;9.304;2022-09-28T06:33:54;9.90;99.90
1534;DHT22;760;48.822;9.304;2022-09-28T06:36:19;10.00;99.90
1534;DHT22;760;48.822;9.304;2022-09-28T06:38:45;9.90;99.90
1534;DHT22;760;48.822;9.304;2022-09-28T06:41:11;10.00;99.90
1534;DHT22;760;48.822;9.304;2022-09-28T06:43:37;10.00;99.90
1534;DHT22;760;48.822;9.304;2022-09-28T06:46:05;10.00;99.90
1534;DHT22;760;48.822;9.304;2022-09-28T06:48:31;10.10;99.90
1534;DHT22;760;48.822;9.304;2022-09-28T06:50:58;10.10;99.90
1534;DHT22;760;48.822;9.304;2022-09-28T06:53:25;10.10;99.90
1534;DHT22;760;48.822;9.304;2022-09-28T06:55:52;10.10;99.90
1534;DHT22;760;48.822;9.304;2022-09-28T06:58:19;10.10;99.90
1534;DHT22;760;48.822;9.304;2022-09-28T07:00:46;10.10;99.90
1534;DHT22;760;48.822;9.304;2022-09-28T07:03:16;10.20;99.90
1534;DHT22;760;48.822;9.304;2022-09-28T07:05:44;10.20;99.90
1534;DHT22;760;48.822;9.304;2022-09-28T07:08:10;10.20;99.90
1534;DHT22;760;48.822;9.304;2022-09-28T07:10:46;10.20;99.90
1534;DHT22;760;48.822;9.304;2022-09-28T07:13:12;10.20;99.90
1534;DHT22;760;48.822;9.304;2022-09-28T07:15:38;10.30;99.90
1534;DHT22;760;48.822;9.304;2022-09-28T07:18:05;10.30;99.90
1534;DHT22;760;48.822;9.304;2022-09-28T07:20:35;10.40;99.90
1534;DHT22;760;48.822;9.304;2022-09-28T07:23:04;10.40;99.90
1534;DHT22;760;48.822;9.304;2022-09-28T07:25:31;10.50;99.90
1534;DHT22;760;48.822;9.304;2022-09-28T07:28:02;10.50;99.90
1534;DHT22;760;48.822;9.304;2022-09-28T07:30:31;10.60;99.90
1534;DHT22;760;48.822;9.304;2022-09-28T07:33:01;10.70;99.90
1534;DHT22;760;48.822;9.304;2022-09-28T07:35:27;10.80;99.90
1534;DHT22;760;48.822;9.304;2022-09-28T07:38:04;10.90;99.90
1534;DHT22;760;48.822;9.304;2022-09-28T07:40:31;11.00;99.90
1534;DHT22;760;48.822;9.304;2022-09-28T07:43:16;11.10;99.90
1534;DHT22;760;48.822;9.304;2022-09-28T07:45:48;11.20;99.90
1534;DHT22;760;48.822;9.304;2022-09-28T07:48:16;11.30;99.90
1534;DHT22;760;48.822;9.304;2022-09-28T07:50:46;11.40;99.90
1534;DHT22;760;48.822;9.304;2022-09-28T07:53:12;11.30;99.90
1534;DHT22;760;48.822;9.304;2022-09-28T07:55:37;11.40;99.90
1534;DHT22;760;48.822;9.304;2022-09-28T07:58:03;11.40;99.90
1534;DHT22;760;48.822;9.304;2022-09-28T08:00:29;11.40;99.90
1534;DHT22;760;48.822;9.304;2022-09-28T08:03:00;11.50;99.90
1534;DHT22;760;48.822;9.304;2022-09-28T08:05:26;11.60;99.90
1534;DHT22;760;48.822;9.304;2022-09-28T08:07:57;11.70;99.90
1534;DHT22;760;48.822;9.304;2022-09-28T08:10:27;11.90;99.90
1534;DHT22;760;48.822;9.304;2022-09-28T08:12:55;12.10;99.90
1534;DHT22;760;48.822;9.304;2022-09-28T08:15:21;12.40;99.90
1534;DHT22;760;48.822;9.304;2022-09-28T08:17:47;12.60;99.90
1534;DHT22;760;48.822;9.304;2022-09-28T08:20:13;12.70;99.90
1534;DHT22;760;48.822;9.304;2022-09-28T08:23:05;12.80;99.90
1534;DHT22;760;48.822;9.304;2022-09-28T08:25:31;12.90;99.90
1534;DHT22;760;48.822;9.304;2022-09-28T08:27:57;13.10;99.90
1534;DHT22;760;48.822;9.304;2022-09-28T08:30:23;13.10;99.90
1534;DHT22;760;48.822;9.304;2022-09-28T08:32:48;13.30;99.90
1534;DHT22;760;48.822;9.304;2022-09-28T08:35:14;13.50;99.90
1534;DHT22;760;48.822;9.304;2022-09-28T08:37:40;13.70;99.90
1534;DHT22;760;48.822;9.304;2022-09-28T08:40:15;13.90;99.90
1534;DHT22;760;48.822;9.304;2022-09-28T08:42:42;14.10;99.90
1534;DHT22;760;48.822;9.304;2022-09-28T08:45:12;14.50;99.90
1534;DHT22;760;48.822;9.304;2022-09-28T08:47:52;14.90;99.90
1534;DHT22;760;48.822;9.304;2022-09-28T08:50:53;15.20;99.90
1534;DHT22;760;48.822;9.304;2022-09-28T08:53:31;15.30;99.90
1534;DHT22;760;48.822;9.304;2022-09-28T08:56:03;15.30;99.90
1534;DHT22;760;48.822;9.304;2022-09-28T08:58:38;15.30;99.90
1534;DHT22;760;48.822;9.304;2022-09-28T09:01:07;15.20;99.90
1534;DHT22;760;48.822;9.304;2022-09-28T09:03:42;15.40;99.90
1534;DHT22;760;48.822;9.304;2022-09-28T09:09:04;16.30;99.90
1534;DHT22;760;48.822;9.304;2022-09-28T09:17:21;16.70;99.90
1534;DHT22;760;48.822;9.304;2022-09-28T09:25:30;16.30;99.90
1534;DHT22;760;48.822;9.304;2022-09-28T09:30:30;16.20;99.90
1534;DHT22;760;48.822;9.304;2022-09-28T09:33:29;16.20;99.90
1534;DHT22;760;48.822;9.304;2022-09-28T09:47:01;16.10;99.90
1534;DHT22;760;48.822;9.304;2022-09-28T09:49:56;16.10;99.90
1534;DHT22;760;48.822;9.304;2022-09-28T09:52:32;16.20;99.90
1534;DHT22;760;48.822;9.304;2022-09-28T09:55:12;16.30;99.90
1534;DHT22;760;48.822;9.304;2022-09-28T09:57:48;16.20;99.90
1534;DHT22;760;48.822;9.304;2022-09-28T10:00:16;16.10;99.90
1534;DHT22;760;48.822;9.304;2022-09-28T10:02:44;16.00;99.90
1534;DHT22;760;48.822;9.304;2022-09-28T10:07:43;15.80;99.90
1534;DHT22;760;48.822;9.304;2022-09-28T10:11:04;15.70;99.90
1534;DHT22;760;48.822;9.304;2022-09-28T10:13:08;15.60;99.90
1534;DHT22;760;48.822;9.304;2022-09-28T10:15:34;15.50;99.90
1534;DHT22;760;48.822;9.304;2022-09-28T10:18:04;15.50;99.90
1534;DHT22;760;48.822;9.304;2022-09-28T10:20:33;15.50;99.90
1534;DHT22;760;48.822;9.304;2022-09-28T10:23:02;15.40;99.90
1534;DHT22;760;48.822;9.304;2022-09-28T10:25:31;15.30;99.90
1534;DHT22;760;48.822;9.304;2022-09-28T10:27:58;15.30;99.90
1534;DHT22;760;48.822;9.304;2022-09-28T10:30:25;15.30;99.90
1534;DHT22;760;48.822;9.304;2022-09-28T10:32:53;15.30;99.90
1534;DHT22;760;48.822;9.304;2022-09-28T10:35:28;15.40;99.90
1534;DHT22;760;48.822;9.304;2022-09-28T10:40:32;15.60;99.90
1534;DHT22;760;48.822;9.304;2022-09-28T10:43:05;15.50;99.90
1534;DHT22;760;48.822;9.304;2022-09-28T10:45:34;15.60;99.90
1534;DHT22;760;48.822;9.304;2022-09-28T10:48:04;15.50;99.90
1534;DHT22;760;48.822;9.304;2022-09-28T10:50:30;15.50;99.90
1534;DHT22;760;48.822;9.304;2022-09-28T10:53:18;15.60;99.90
1534;DHT22;760;48.822;9.304;2022-09-28T10:55:56;15.70;99.90
1534;DHT22;760;48.822;9.304;2022-09-28T10:58:26;15.80;99.90
1534;DHT22;760;48.822;9.304;2022-09-28T11:00:58;16.00;99.90
1534;DHT22;760;48.822;9.304;2022-09-28T11:03:26;16.10;99.90
1534;DHT22;760;48.822;9.304;2022-09-28T11:06:03;16.20;99.80
1534;DHT22;760;48.822;9.304;2022-09-28T11:08:35;16.10;99.40
1534;DHT22;760;48.822;9.304;2022-09-28T11:11:09;16.10;99.00
1534;DHT22;760;48.822;9.304;2022-09-28T11:13:59;16.00;98.80
1534;DHT22;760;48.822;9.304;2022-09-28T11:16:28;16.00;98.90
1534;DHT22;760;48.822;9.304;2022-09-28T11:18:55;16.00;98.90
1534;DHT22;760;48.822;9.304;2022-09-28T11:21:26;16.00;98.40
1534;DHT22;760;48.822;9.304;2022-09-28T11:24:22;15.80;98.50
1534;DHT22;760;48.822;9.304;2022-09-28T11:26:51;15.80;98.90
1534;DHT22;760;48.822;9.304;2022-09-28T11:29:39;15.80;99.00
1534;DHT22;760;48.822;9.304;2022-09-28T11:32:07;15.80;99.10
1534;DHT22;760;48.822;9.304;2022-09-28T11:34:42;15.70;99.90
1534;DHT22;760;48.822;9.304;2022-09-28T11:45:47;16.00;99.50
1534;DHT22;760;48.822;9.304;2022-09-28T11:48:24;16.00;99.50
1534;DHT22;760;48.822;9.304;2022-09-28T11:51:07;16.10;99.00
1534;DHT22;760;48.822;9.304;2022-09-28T11:53:44;16.10;99.30
1534;DHT22;760;48.822;9.304;2022-09-28T11:56:33;16.30;99.80
1534;DHT22;760;48.822;9.304;2022-09-28T11:59:19;16.30;99.20
1534;DHT22;760;48.822;9.304;2022-09-28T12:01:50;16.30;99.70
1534;DHT22;760;48.822;9.304;2022-09-28T12:04:27;16.30;99.70
1534;DHT22;760;48.822;9.304;2022-09-28T12:07:03;16.10;99.90
1534;DHT22;760;48.822;9.304;2022-09-28T12:09:38;16.10;99.90
1534;DHT22;760;48.822;9.304;2022-09-28T12:12:19;16.00;99.10
1534;DHT22;760;48.822;9.304;2022-09-28T12:14:47;16.10;98.60
1534;DHT22;760;48.822;9.304;2022-09-28T12:17:25;16.20;98.10
1534;DHT22;760;48.822;9.304;2022-09-28T12:22:36;16.20;97.60
1534;DHT22;760;48.822;9.304;2022-09-28T12:25:04;16.10;97.30
1534;DHT22;760;48.822;9.304;2022-09-28T12:28:14;16.10;97.30
1534;DHT22;760;48.822;9.304;2022-09-28T12:30:42;16.10;97.00
1534;DHT22;760;48.822;9.304;2022-09-28T12:33:11;16.10;96.70
1534;DHT22;760;48.822;9.304;2022-09-28T12:38:42;16.20;96.80
1534;DHT22;760;48.822;9.304;2022-09-28T12:52:27;16.10;95.90
1534;DHT22;760;48.822;9.304;2022-09-28T13:00:20;16.20;95.70
1534;DHT22;760;48.822;9.304;2022-09-28T13:08:14;16.20;96.00
1534;DHT22;760;48.822;9.304;2022-09-28T13:11:17;16.20;95.90
1534;DHT22;760;48.822;9.304;2022-09-28T13:16:52;16.10;94.80
1534;DHT22;760;48.822;9.304;2022-09-28T13:25:19;16.10;95.80
1534;DHT22;760;48.822;9.304;2022-09-28T13:28:03;16.10;95.90
1534;DHT22;760;48.822;9.304;2022-09-28T13:30:32;16.10;96.40
1534;DHT22;760;48.822;9.304;2022-09-28T13:33:01;16.20;96.30
1534;DHT22;760;48.822;9.304;2022-09-28T13:35:28;16.30;95.40
1534;DHT22;760;48.822;9.304;2022-09-28T13:49:16;16.00;94.70
1534;DHT22;760;48.822;9.304;2022-09-28T13:55:12;15.80;95.30
1534;DHT22;760;48.822;9.304;2022-09-28T14:00:19;15.70;95.30
1534;DHT22;760;48.822;9.304;2022-09-28T14:03:09;15.60;95.40
1534;DHT22;760;48.822;9.304;2022-09-28T14:05:46;15.50;95.40
1534;DHT22;760;48.822;9.304;2022-09-28T14:14:03;15.50;95.30
1534;DHT22;760;48.822;9.304;2022-09-28T14:16:31;15.50;95.40
1534;DHT22;760;48.822;9.304;2022-09-28T14:19:02;15.50;96.40
1534;DHT22;760;48.822;9.304;2022-09-28T14:24:43;15.50;95.80
1534;DHT22;760;48.822;9.304;2022-09-28T14:30:21;15.30;94.60
1534;DHT22;760;48.822;9.304;2022-09-28T14:32:56;15.30;94.60
1534;DHT22;760;48.822;9.304;2022-09-28T14:35:42;15.30;94.90
1534;DHT22;760;48.822;9.304;2022-09-28T14:38:18;15.30;94.90
1534;DHT22;760;48.822;9.304;2022-09-28T14:41:06;15.20;95.30
1534;DHT22;760;48.822;9.304;2022-09-28T14:48:51;15.10;94.30
1534;DHT22;760;48.822;9.304;2022-09-28T14:59:18;15.00;96.30
1534;DHT22;760;48.822;9.304;2022-09-28T15:01:50;14.90;96.30
1534;DHT22;760;48.822;9.304;2022-09-28T15:04:18;14.90;96.50
1534;DHT22;760;48.822;9.304;2022-09-28T15:06:49;14.90;95.90
1534;DHT22;760;48.822;9.304;2022-09-28T15:09:41;14.80;95.60
1534;DHT22;760;48.822;9.304;2022-09-28T15:14:48;14.70;95.40
1534;DHT22;760;48.822;9.304;2022-09-28T15:17:20;14.60;95.50
1534;DHT22;760;48.822;9.304;2022-09-28T15:20:03;14.60;95.50
1534;DHT22;760;48.822;9.304;2022-09-28T15:22:33;14.50;95.60
1534;DHT22;760;48.822;9.304;2022-09-28T15:25:00;14.50;96.00
1534;DHT22;760;48.822;9.304;2022-09-28T15:27:33;14.40;95.40
1534;DHT22;760;48.822;9.304;2022-09-28T15:30:21;14.40;95.60
1534;DHT22;760;48.822;9.304;2022-09-28T15:32:52;14.40;95.60
1534;DHT22;760;48.822;9.304;2022-09-28T15:35:23;14.30;95.60
1534;DHT22;760;48.822;9.304;2022-09-28T15:37:50;14.30;95.20
1534;DHT22;760;48.822;9.304;2022-09-28T15:40:29;14.20;95.10
1534;DHT22;760;48.822;9.304;2022-09-28T15:42:56;14.20;95.30
1534;DHT22;760;48.822;9.304;2022-09-28T15:45:36;14.10;94.90
1534;DHT22;760;48.822;9.304;2022-09-28T15:48:27;14.00;95.10
1534;DHT22;760;48.822;9.304;2022-09-28T15:51:09;14.00;95.00
1534;DHT22;760;48.822;9.304;2022-09-28T15:56:14;13.90;96.30
1534;DHT22;760;48.822;9.304;2022-09-28T15:58:40;13.90;96.30
1534;DHT22;760;48.822;9.304;2022-09-28T16:01:24;13.80;96.50
1534;DHT22;760;48.822;9.304;2022-09-28T16:03:51;13.70;97.70
1534;DHT22;760;48.822;9.304;2022-09-28T16:06:17;13.70;97.70
1534;DHT22;760;48.822;9.304;2022-09-28T16:08:46;13.70;97.30
1534;DHT22;760;48.822;9.304;2022-09-28T16:11:25;13.70;97.50
1534;DHT22;760;48.822;9.304;2022-09-28T16:16:29;13.70;97.40
1534;DHT22;760;48.822;9.304;2022-09-28T16:18:57;13.60;97.80
1534;DHT22;760;48.822;9.304;2022-09-28T16:21:44;13.60;97.60
1534;DHT22;760;48.822;9.304;2022-09-28T16:24:25;13.50;97.90
1534;DHT22;760;48.822;9.304;2022-09-28T16:27:07;13.50;98.40
1534;DHT22;760;48.822;9.304;2022-09-28T16:29:39;13.40;98.80
1534;DHT22;760;48.822;9.304;2022-09-28T16:37:38;13.20;99.50
1534;DHT22;760;48.822;9.304;2022-09-28T16:40:08;13.10;99.50
1534;DHT22;760;48.822;9.304;2022-09-28T16:42:34;13.10;99.80
1534;DHT22;760;48.822;9.304;2022-09-28T16:45:01;13.00;99.80
1534;DHT22;760;48.822;9.304;2022-09-28T16:47:30;12.90;99.80
1534;DHT22;760;48.822;9.304;2022-09-28T16:50:04;12.80;99.90
1534;DHT22;760;48.822;9.304;2022-09-28T16:52:31;12.80;99.90
1534;DHT22;760;48.822;9.304;2022-09-28T16:55:15;12.70;99.90
1534;DHT22;760;48.822;9.304;2022-09-28T16:57:45;12.60;99.90
1534;DHT22;760;48.822;9.304;2022-09-28T17:00:22;12.60;99.90
1534;DHT22;760;48.822;9.304;2022-09-28T17:02:48;12.50;99.90
1534;DHT22;760;48.822;9.304;2022-09-28T17:05:15;12.50;99.90
1534;DHT22;760;48.822;9.304;2022-09-28T17:07:42;12.50;99.90
1534;DHT22;760;48.822;9.304;2022-09-28T17:10:17;12.50;99.90
1534;DHT22;760;48.822;9.304;2022-09-28T17:12:44;12.50;99.90
1534;DHT22;760;48.822;9.304;2022-09-28T17:15:10;12.50;99.90
1534;DHT22;760;48.822;9.304;2022-09-28T17:17:36;12.50;99.90
1534;DHT22;760;48.822;9.304;2022-09-28T17:20:16;12.50;99.90
1534;DHT22;760;48.822;9.304;2022-09-28T17:22:44;12.40;99.90
1534;DHT22;760;48.822;9.304;2022-09-28T17:25:10;12.40;99.90
1534;DHT22;760;48.822;9.304;2022-09-28T17:27:43;12.30;99.90
1534;DHT22;760;48.822;9.304;2022-09-28T17:30:11;12.30;99.90
1534;DHT22;760;48.822;9.304;2022-09-28T17:32:38;12.20;99.90
1534;DHT22;760;48.822;9.304;2022-09-28T17:35:13;12.20;99.90
1534;DHT22;760;48.822;9.304;2022-09-28T17:37:39;12.10;99.90
1534;DHT22;760;48.822;9.304;2022-09-28T17:40:27;12.00;99.90
1534;DHT22;760;48.822;9.304;2022-09-28T17:42:55;11.90;99.90
1534;DHT22;760;48.822;9.304;2022-09-28T17:45:25;11.90;99.90
1534;DHT22;760;48.822;9.304;2022-09-28T17:47:52;11.80;99.90
1534;DHT22;760;48.822;9.304;2022-09-28T17:50:29;11.70;99.90
1534;DHT22;760;48.822;9.304;2022-09-28T17:52:57;11.60;99.90
1534;DHT22;760;48.822;9.304;2022-09-28T17:55:29;11.40;99.90
1534;DHT22;760;48.822;9.304;2022-09-28T17:57:59;11.30;99.90
1534;DHT22;760;48.822;9.304;2022-09-28T18:00:28;11.20;99.90
1534;DHT22;760;48.822;9.304;2022-09-28T18:02:55;11.20;99.90
1534;DHT22;760;48.822;9.304;2022-09-28T18:05:22;11.10;99.90
1534;DHT22;760;48.822;9.304;2022-09-28T18:07:49;11.10;99.90
1534;DHT22;760;48.822;9.304;2022-09-28T18:10:20;11.00;99.90
1534;DHT22;760;48.822;9.304;2022-09-28T18:12:47;10.90;99.90
1534;DHT22;760;48.822;9.304;2022-09-28T18:15:14;10.90;99.90
1534;DHT22;760;48.822;9.304;2022-09-28T18:17:39;10.90;99.90
1534;DHT22;760;48.822;9.304;2022-09-28T18:20:07;10.80;99.90
1534;DHT22;760;48.822;9.304;2022-09-28T18:22:33;10.70;99.90
1534;DHT22;760;48.822;9.304;2022-09-28T18:24:59;10.70;99.90
1534;DHT22;760;48.822;9.304;2022-09-28T18:27:26;10.70;99.90
1534;DHT22;760;48.822;9.304;2022-09-28T18:29:51;10.60;99.90
1534;DHT22;760;48.822;9.304;2022-09-28T18:32:17;10.60;99.90
1534;DHT22;760;48.822;9.304;2022-09-28T18:34:43;10.50;99.90
1534;DHT22;760;48.822;9.304;2022-09-28T18:37:08;10.40;99.90
1534;DHT22;760;48.822;9.304;2022-09-28T18:39:34;10.40;99.90
1534;DHT22;760;48.822;9.304;2022-09-28T18:42:01;10.30;99.90
1534;DHT22;760;48.822;9.304;2022-09-28T18:44:27;10.20;99.90
1534;DHT22;760;48.822;9.304;2022-09-28T18:46:53;10.20;99.90
1534;DHT22;760;48.822;9.304;2022-09-28T18:49:20;10.10;99.90
1534;DHT22;760;48.822;9.304;2022-09-28T18:51:46;10.10;99.90
1534;DHT22;760;48.822;9.304;2022-09-28T18:54:11;10.00;99.90
1534;DHT22;760;48.822;9.304;2022-09-28T18:56:37;10.00;99.90
1534;DHT22;760;48.822;9.304;2022-09-28T18:59:04;10.00;99.90
1534;DHT22;760;48.822;9.304;2022-09-28T19:01:33;10.00;99.90
1534;DHT22;760;48.822;9.304;2022-09-28T19:04:00;9.90;99.90
1534;DHT22;760;48.822;9.304;2022-09-28T19:06:26;9.90;99.90
1534;DHT22;760;48.822;9.304;2022-09-28T19:08:53;9.80;99.90
1534;DHT22;760;48.822;9.304;2022-09-28T19:11:20;9.80;99.90
1534;DHT22;760;48.822;9.304;2022-09-28T19:13:46;9.80;99.90
1534;DHT22;760;48.822;9.304;2022-09-28T19:16:16;9.80;99.90
1534;DHT22;760;48.822;9.304;2022-09-28T19:18:43;9.70;99.90
1534;DHT22;760;48.822;9.304;2022-09-28T19:21:11;9.70;99.90
1534;DHT22;760;48.822;9.304;2022-09-28T19:23:37;9.70;99.90
1534;DHT22;760;48.822;9.304;2022-09-28T19:26:11;9.60;99.90
1534;DHT22;760;48.822;9.304;2022-09-28T19:28:37;9.60;99.90
1534;DHT22;760;48.822;9.304;2022-09-28T19:31:04;9.60;99.90
1534;DHT22;760;48.822;9.304;2022-09-28T19:33:30;9.60;99.90
1534;DHT22;760;48.822;9.304;2022-09-28T19:36:00;9.50;99.90
1534;DHT22;760;48.822;9.304;2022-09-28T19:38:30;9.50;99.90
1534;DHT22;760;48.822;9.304;2022-09-28T19:40:56;9.50;99.90
1534;DHT22;760;48.822;9.304;2022-09-28T19:43:22;9.50;99.90
1534;DHT22;760;48.822;9.304;2022-09-28T19:45:50;9.50;99.90
1534;DHT22;760;48.822;9.304;2022-09-28T19:48:27;9.40;99.90
1534;DHT22;760;48.822;9.304;2022-09-28T19:50:57;9.40;99.90
1534;DHT22;760;48.822;9.304;2022-09-28T19:53:28;9.40;99.90
1534;DHT22;760;48.822;9.304;2022-09-28T19:55:55;9.40;99.90
1534;DHT22;760;48.822;9.304;2022-09-28T19:58:22;9.30;99.90
1534;DHT22;760;48.822;9.304;2022-09-28T20:00:49;9.30;99.90
1534;DHT22;760;48.822;9.304;2022-09-28T20:03:15;9.30;99.90
1534;DHT22;760;48.822;9.304;2022-09-28T20:05:40;9.30;99.90
1534;DHT22;760;48.822;9.304;2022-09-28T20:08:08;9.30;99.90
1534;DHT22;760;48.822;9.304;2022-09-28T20:10:34;9.20;99.90
1534;DHT22;760;48.822;9.304;2022-09-28T20:12:59;9.20;99.90
1534;DHT22;760;48.822;9.304;2022-09-28T20:15:25;9.10;99.90
1534;DHT22;760;48.822;9.304;2022-09-28T20:17:51;9.20;99.90
1534;DHT22;760;48.822;9.304;2022-09-28T20:20:16;9.10;99.90
1534;DHT22;760;48.822;9.304;2022-09-28T20:22:42;9.10;99.90
1534;DHT22;760;48.822;9.304;2022-09-28T20:25:09;9.10;99.90
1534;DHT22;760;48.822;9.304;2022-09-28T20:27:35;9.00;99.90
1534;DHT22;760;48.822;9.304;2022-09-28T20:30:01;9.10;99.90
1534;DHT22;760;48.822;9.304;2022-09-28T20:32:30;9.00;99.90
1534;DHT22;760;48.822;9.304;2022-09-28T20:34:56;9.00;99.90
1534;DHT22;760;48.822;9.304;2022-09-28T20:37:22;9.00;99.90
1534;DHT22;760;48.822;9.304;2022-09-28T20:39:51;9.00;99.90
1534;DHT22;760;48.822;9.304;2022-09-28T20:42:17;9.00;99.90
1534;DHT22;760;48.822;9.304;2022-09-28T20:44:43;9.00;99.90
1534;DHT22;760;48.822;9.304;2022-09-28T20:47:09;9.00;99.90
1534;DHT22;760;48.822;9.304;2022-09-28T20:49:35;8.90;99.90
1534;DHT22;760;48.822;9.304;2022-09-28T20:52:01;8.90;99.90
1534;DHT22;760;48.822;9.304;2022-09-28T20:54:26;8.90;99.90
1534;DHT22;760;48.822;9.304;2022-09-28T20:56:52;9.00;99.90
1534;DHT22;760;48.822;9.304;2022-09-28T20:59:18;8.90;99.90
1534;DHT22;760;48.822;9.304;2022-09-28T21:01:46;8.90;99.90
1534;DHT22;760;48.822;9.304;2022-09-28T21:04:12;8.90;99.90
1534;DHT22;760;48.822;9.304;2022-09-28T21:06:39;8.90;99.90
1534;DHT22;760;48.822;9.304;2022-09-28T21:09:07;8.90;99.90
1534;DHT22;760;48.822;9.304;2022-09-28T21:11:32;8.80;99.90
1534;DHT22;760;48.822;9.304;2022-09-28T21:14:01;8.80;99.90
1534;DHT22;760;48.822;9.304;2022-09-28T21:16:30;8.70;99.90
1534;DHT22;760;48.822;9.304;2022-09-28T21:18:56;8.70;99.90
1534;DHT22;760;48.822;9.304;2022-09-28T21:21:23;8.60;99.90
1534;DHT22;760;48.822;9.304;2022-09-28T21:23:52;8.60;99.90
1534;DHT22;760;48.822;9.304;2022-09-28T21:26:20;8.60;99.90
1534;DHT22;760;48.822;9.304;2022-09-28T21:28:57;8.60;99.90
1534;DHT22;760;48.822;9.304;2022-09-28T21:31:24;8.60;99.90
1534;DHT22;760;48.822;9.304;2022-09-28T21:33:50;8.60;99.90
1534;DHT22;760;48.822;9.304;2022-09-28T21:36:16;8.60;99.90
1534;DHT22;760;48.822;9.304;2022-09-28T21:38:42;8.60;99.90
1534;DHT22;760;48.822;9.304;2022-09-28T21:41:08;8.60;99.90
1534;DHT22;760;48.822;9.304;2022-09-28T21:43:34;8.70;99.90
1534;DHT22;760;48.822;9.304;2022-09-28T21:46:00;8.70;99.90
1534;DHT22;760;48.822;9.304;2022-09-28T21:48:27;8.70;99.90
1534;DHT22;760;48.822;9.304;2022-09-28T21:50:57;8.80;99.90
1534;DHT22;760;48.822;9.304;2022-09-28T21:53:29;8.80;99.90
1534;DHT22;760;48.822;9.304;2022-09-28T21:55:55;8.80;99.90
1534;DHT22;760;48.822;9.304;2022-09-28T21:58:25;8.80;99.90
